Time;durP1;ratioP1;P1;durP2;ratioP2;P2;SDS_P1;SDS_P2;PMS_P1;PMS_P2;Temp;Humidity;BMP_temperature;BMP_pressure;BME280_temperature;BME280_humidity;BME280_pressure;Samples;Min_cycle;Max_cycle;Signal;HPM_P1;HPM_P2
2023/01/07 00:00:15;;;;;;;;;4.75;2.75;;;;;13.86;65.80;101434.34;4951236;28;45325;-71
2023/01/07 00:02:40;;;;;;;;;6.25;4.00;;;;;13.79;66.13;101416.72;4941925;28;45312;-71
2023/01/07 00:05:06;;;;;;;;;3.00;3.00;;;;;13.82;65.76;101419.31;4942230;28;45410;-71
2023/01/07 00:07:31;;;;;;;;;2.00;2.00;;;;;13.68;65.90;101395.66;4941118;28;46489;-71
2023/01/07 00:09:56;;;;;;;;;2.75;2.75;;;;;13.90;66.17;101421.72;4943176;28;45250;-71
2023/01/07 00:12:22;;;;;;;;;3.25;2.25;;;;;13.86;65.88;101404.84;4941850;28;45448;-71
2023/01/07 00:14:47;;;;;;;;;3.00;3.00;;;;;13.75;65.83;101384.69;4956745;28;45534;-71
2023/01/07 00:17:13;;;;;;;;;3.00;3.00;;;;;13.97;65.76;101408.97;4941544;28;45489;-71
2023/01/07 00:19:38;;;;;;;;;2.25;2.00;;;;;13.97;65.72;101404.47;4943100;28;45529;-71
2023/01/07 00:22:03;;;;;;;;;4.00;2.00;;;;;13.97;65.36;101396.41;4950929;28;45341;-71
2023/01/07 00:24:29;;;;;;;;;2.50;2.50;;;;;13.84;65.42;101374.50;4941604;28;45460;-71
2023/01/07 00:26:54;;;;;;;;;2.00;2.00;;;;;13.89;65.38;101374.34;4939800;28;47987;-71
2023/01/07 00:29:20;;;;;;;;;3.00;3.00;;;;;13.77;65.57;101350.66;4941833;28;45394;-71
2023/01/07 00:31:45;;;;;;;;;2.00;2.00;;;;;13.79;65.40;101355.00;4941545;28;45640;-71
2023/01/07 00:34:10;;;;;;;;;4.00;2.00;;;;;13.93;65.23;101367.91;4941793;28;45357;-71
2023/01/07 00:36:42;;;;;;;;;2.00;2.00;;;;;13.82;65.28;101341.50;4941290;28;46343;-71
2023/01/07 00:39:12;;;;;;;;;4.00;3.00;;;;;13.86;65.41;101347.63;4941672;28;45595;-71
2023/01/07 00:41:37;;;;;;;;;3.00;3.00;;;;;13.94;65.35;101358.94;4940204;28;45442;-71
2023/01/07 00:44:05;;;;;;;;;2.00;2.00;;;;;13.72;65.29;101321.28;4941606;28;45297;-71
2023/01/07 00:46:31;;;;;;;;;3.00;1.00;;;;;13.76;65.08;101312.19;4956200;28;48004;-71
2023/01/07 00:48:56;;;;;;;;;3.00;3.00;;;;;13.74;65.43;101315.88;4956278;28;45764;-71
2023/01/07 00:51:22;;;;;;;;;1.00;1.00;;;;;13.90;64.68;101339.41;4940089;28;45551;-71
2023/01/07 00:53:48;;;;;;;;;1.75;1.75;;;;;13.89;65.14;101342.13;4940071;28;45403;-71
2023/01/07 00:56:16;;;;;;;;;2.75;2.75;;;;;13.80;64.99;101316.53;4927929;28;45710;-71
2023/01/07 00:58:42;;;;;;;;;2.75;2.75;;;;;13.80;64.96;101318.31;4947359;28;45416;-71
2023/01/07 01:01:09;;;;;;;;;3.50;2.00;;;;;13.78;64.98;101313.03;4943578;28;45386;-71
2023/01/07 01:03:34;;;;;;;;;3.50;3.50;;;;;13.80;65.03;101319.22;4941294;28;45500;-71
2023/01/07 01:06:06;;;;;;;;;2.75;2.00;;;;;13.78;65.26;101299.63;4940902;28;46099;-71
2023/01/07 01:08:31;;;;;;;;;4.00;2.75;;;;;13.69;65.07;101286.53;4941141;28;45394;-71
2023/01/07 01:11:03;;;;;;;;;2.00;1.00;;;;;13.75;65.10;101299.72;4941804;28;45538;-71
2023/01/07 01:13:28;;;;;;;;;3.25;3.00;;;;;13.79;65.49;101301.34;4941145;28;45622;-71
2023/01/07 01:15:53;;;;;;;;;1.00;1.00;;;;;13.65;64.90;101268.81;4940828;28;45484;-71
2023/01/07 01:18:19;;;;;;;;;2.00;2.00;;;;;13.67;65.23;101264.25;4940978;28;45459;-71
2023/01/07 01:20:44;;;;;;;;;2.00;2.00;;;;;13.78;65.03;101287.97;4945488;28;45389;-71
2023/01/07 01:23:09;;;;;;;;;3.00;1.75;;;;;13.78;64.77;101286.19;4940221;28;45564;-71
2023/01/07 01:25:35;;;;;;;;;3.00;3.00;;;;;13.60;65.35;101251.97;4939223;28;46170;-71
2023/01/07 01:28:00;;;;;;;;;2.25;2.25;;;;;13.85;64.99;101292.22;4940903;28;45481;-71
2023/01/07 01:30:26;;;;;;;;;2.00;2.00;;;;;13.61;64.97;101246.56;4955541;28;45516;-71
2023/01/07 01:32:51;;;;;;;;;2.00;2.00;;;;;13.68;65.12;101255.25;4940901;28;45454;-71
2023/01/07 01:35:17;;;;;;;;;3.50;2.75;;;;;13.83;64.86;101280.63;4939534;28;45600;-71
2023/01/07 01:37:42;;;;;;;;;2.00;2.00;;;;;13.66;65.03;101244.56;4940716;28;45297;-71
2023/01/07 01:40:09;;;;;;;;;2.00;1.75;;;;;13.82;65.02;101270.84;4940478;28;45255;-71
2023/01/07 01:42:35;;;;;;;;;2.00;2.00;;;;;13.62;64.60;101242.09;4940632;28;45270;-71
2023/01/07 01:45:01;;;;;;;;;1.75;1.75;;;;;13.59;64.86;101234.16;4940476;28;45427;-71
2023/01/07 01:47:41;;;;;;;;;2.00;2.00;;;;;13.78;65.02;101271.88;4955344;28;45333;-71
2023/01/07 01:50:21;;;;;;;;;2.00;2.00;;;;;13.79;64.84;101273.66;4947821;28;45541;-71
2023/01/07 01:52:58;;;;;;;;;2.50;2.50;;;;;13.58;64.87;101233.28;4949318;28;45374;-71
2023/01/07 01:55:29;;;;;;;;;2.00;2.00;;;;;13.65;64.47;101245.53;4946349;28;47223;-71
2023/01/07 01:58:01;;;;;;;;;2.00;2.00;;;;;13.69;64.86;101262.38;4936125;28;45331;-71
2023/01/07 02:00:27;;;;;;;;;2.50;2.50;;;;;13.55;64.68;101233.38;4939549;28;45327;-71
2023/01/07 02:02:57;;;;;;;;;1.00;1.00;;;;;13.52;64.80;101222.78;4955105;28;45496;-71
2023/01/07 02:05:31;;;;;;;;;2.75;2.50;;;;;13.60;65.25;101242.13;4940295;28;46402;-71
2023/01/07 02:07:57;;;;;;;;;2.00;2.00;;;;;13.54;65.03;101226.25;4940224;28;45279;-71
2023/01/07 02:10:23;;;;;;;;;3.00;2.00;;;;;13.65;64.73;101244.66;4951850;28;45396;-71
2023/01/07 02:13:16;;;;;;;;;1.50;1.50;;;;;13.64;64.97;101243.75;4940758;28;45460;-71
2023/01/07 02:16:08;;;;;;;;;3.25;3.25;;;;;13.50;65.09;101219.28;4940070;28;45541;-71
2023/01/07 02:19:03;;;;;;;;;3.00;2.00;;;;;13.65;64.91;101240.16;4956671;28;45454;-71
2023/01/07 02:21:37;;;;;;;;;1.75;1.75;;;;;13.63;65.06;101236.66;4943737;28;45440;-71
2023/01/07 02:24:29;;;;;;;;;2.00;2.00;;;;;13.65;64.99;101237.47;4939981;28;45332;-71
2023/01/07 02:27:00;;;;;;;;;2.00;2.00;;;;;13.60;65.13;101226.03;4935859;28;46600;-71
2023/01/07 02:29:59;;;;;;;;;4.00;2.00;;;;;13.67;65.28;101234.75;4943426;28;45670;-71
2023/01/07 02:33:03;;;;;;;;;2.25;1.25;;;;;13.65;65.38;101229.44;4927639;28;45728;-71
2023/01/07 02:35:34;;;;;;;;;3.00;3.00;;;;;13.65;65.06;101223.19;4939892;28;45461;-71
2023/01/07 02:38:27;;;;;;;;;1.00;1.00;;;;;13.65;65.27;101224.06;4954648;28;47072;-71
2023/01/07 02:41:08;;;;;;;;;2.25;2.25;;;;;13.64;65.26;101222.31;4939871;28;45484;-71
2023/01/07 02:44:02;;;;;;;;;2.00;2.00;;;;;13.67;65.01;101224.00;4939882;28;45441;-71
2023/01/07 02:46:59;;;;;;;;;3.50;2.00;;;;;13.64;65.11;101210.72;4956485;28;45540;-71
2023/01/07 02:49:24;;;;;;;;;2.25;2.00;;;;;13.52;65.13;101194.13;4942053;28;45398;-71
2023/01/07 02:51:50;;;;;;;;;2.00;2.00;;;;;13.43;65.41;101173.03;4966547;28;45521;-71
2023/01/07 02:54:25;;;;;;;;;1.50;1.50;;;;;13.53;64.87;101190.53;4943218;28;45392;-71
2023/01/07 02:57:15;;;;;;;;;1.00;0.00;;;;;13.63;65.23;101199.09;4930758;28;45451;-71
2023/01/07 02:59:58;;;;;;;;;0.25;0.25;;;;;13.52;65.11;101169.13;4953010;28;45955;-71
2023/01/07 03:02:44;;;;;;;;;3.25;3.00;;;;;13.42;65.00;101152.50;4942894;28;45259;-71
2023/01/07 03:05:10;;;;;;;;;2.00;1.00;;;;;13.56;64.38;101170.75;4933157;28;45319;-71
2023/01/07 03:08:03;;;;;;;;;1.00;1.00;;;;;13.46;64.66;101164.00;4942797;28;45511;-71
2023/01/07 03:10:58;;;;;;;;;1.75;1.75;;;;;13.48;64.90;101172.84;4943408;28;46475;-71
2023/01/07 03:13:28;;;;;;;;;1.00;1.00;;;;;13.32;64.56;101141.25;4942978;28;45521;-71
2023/01/07 03:16:21;;;;;;;;;2.00;2.00;;;;;13.38;64.41;101144.63;4942720;28;45333;-71
2023/01/07 03:18:55;;;;;;;;;1.00;1.00;;;;;13.47;64.66;101155.88;4938501;28;45889;-71
2023/01/07 03:21:24;;;;;;;;;0.75;0.75;;;;;13.36;64.63;101133.97;4938561;28;45317;-71
2023/01/07 03:23:54;;;;;;;;;0.00;0.00;;;;;13.43;64.07;101135.50;4942584;28;45444;-71
2023/01/07 03:26:25;;;;;;;;;1.00;1.00;;;;;13.40;64.08;101121.31;4942421;28;45314;-71
2023/01/07 03:28:52;;;;;;;;;1.00;1.00;;;;;13.56;64.15;101145.75;4942490;28;45399;-71
2023/01/07 03:31:21;;;;;;;;;2.00;1.00;;;;;13.48;63.93;101130.81;4942510;28;45493;-71
2023/01/07 03:33:56;;;;;;;;;0.75;0.75;;;;;13.57;63.82;101139.47;4941161;28;46067;-71
2023/01/07 03:36:28;;;;;;;;;1.50;1.50;;;;;13.53;63.80;101128.84;4942679;28;45410;-71
2023/01/07 03:38:54;;;;;;;;;2.00;2.00;;;;;13.50;63.92;101117.38;4941117;28;45584;-71
2023/01/07 03:44:03;;;;;;;;;1.75;1.75;;;;;13.45;63.42;101106.81;4942464;28;45314;-71
2023/01/07 03:46:29;;;;;;;;;1.75;1.50;;;;;13.36;63.49;101091.06;4940938;28;45533;-71
2023/01/07 03:48:54;;;;;;;;;1.50;1.00;;;;;13.37;63.63;101097.31;4941641;28;45303;-71
2023/01/07 03:51:20;;;;;;;;;2.25;1.00;;;;;13.38;63.54;101091.91;4949025;28;45362;-71
2023/01/07 03:53:45;;;;;;;;;0.25;0.25;;;;;13.32;62.99;101087.63;4947215;28;45252;-71
2023/01/07 03:56:10;;;;;;;;;1.75;1.75;;;;;13.41;63.47;101091.75;4943751;28;45313;-71
2023/01/07 03:58:36;;;;;;;;;1.75;1.00;;;;;13.52;62.98;101099.41;4946601;28;45605;-71
2023/01/07 04:01:01;;;;;;;;;1.00;1.00;;;;;13.26;63.33;101057.47;4945077;28;47664;-71
2023/01/07 04:03:26;;;;;;;;;0.00;0.00;;;;;13.29;63.26;101057.34;4942161;28;45337;-71
2023/01/07 04:05:52;;;;;;;;;1.75;1.00;;;;;13.42;63.32;101074.75;4957000;28;45335;-71
2023/01/07 04:08:17;;;;;;;;;1.00;1.00;;;;;13.44;63.29;101080.03;4942068;28;45476;-70
2023/01/07 04:10:43;;;;;;;;;1.25;1.25;;;;;13.40;63.35;101070.34;4942445;28;45536;-71
2023/01/07 04:13:08;;;;;;;;;0.00;0.00;;;;;13.29;63.28;101035.91;4956807;28;45524;-71
2023/01/07 04:15:33;;;;;;;;;2.00;0.00;;;;;13.28;63.17;101044.88;4941885;28;45369;-71
2023/01/07 04:17:59;;;;;;;;;1.00;1.00;;;;;13.30;63.31;101046.56;4956765;28;45448;-71
2023/01/07 04:20:24;;;;;;;;;1.75;1.00;;;;;13.41;63.28;101051.53;4943910;28;46678;-71
2023/01/07 04:22:49;;;;;;;;;1.00;1.00;;;;;13.35;63.26;101043.75;4941823;28;45412;-71
2023/01/07 04:25:15;;;;;;;;;2.00;2.00;;;;;13.22;62.84;101012.97;4941580;28;45519;-71
2023/01/07 04:27:40;;;;;;;;;0.50;0.50;;;;;13.35;62.92;101033.03;4941730;28;45515;-71
2023/01/07 04:30:06;;;;;;;;;0.50;0.50;;;;;13.38;63.22;101032.91;4940159;28;48340;-71
2023/01/07 04:32:32;;;;;;;;;1.00;1.00;;;;;13.24;63.22;101000.34;4939109;28;46080;-71
2023/01/07 04:34:57;;;;;;;;;2.50;1.00;;;;;13.28;63.07;101010.00;4941711;28;45509;-71
2023/01/07 04:37:22;;;;;;;;;1.00;1.00;;;;;13.40;62.98;101006.00;4941713;28;45508;-70
2023/01/07 04:39:48;;;;;;;;;1.00;1.00;;;;;13.25;62.86;100991.41;4941219;28;46324;-71
2023/01/07 04:42:13;;;;;;;;;1.00;1.00;;;;;13.29;62.98;101001.06;4940619;28;45339;-71
2023/01/07 04:44:38;;;;;;;;;2.00;2.00;;;;;13.31;62.94;101009.91;4941562;28;45339;-71
2023/01/07 04:47:04;;;;;;;;;1.25;1.25;;;;;13.29;62.31;101001.91;4941303;28;45330;-71
2023/01/07 04:49:29;;;;;;;;;1.00;1.00;;;;;13.08;62.74;100965.22;4941349;28;45246;-71
2023/01/07 04:51:55;;;;;;;;;1.50;1.50;;;;;13.08;63.12;100973.28;4941321;28;45275;-71
2023/01/07 04:54:20;;;;;;;;;3.00;2.00;;;;;13.13;63.11;100974.84;4941486;28;45416;-71
2023/01/07 04:56:45;;;;;;;;;2.25;1.00;;;;;13.18;63.45;100982.72;4928359;28;45294;-71
2023/01/07 04:59:11;;;;;;;;;2.50;2.50;;;;;13.18;63.58;100977.34;4950929;28;45494;-71
2023/01/07 05:01:36;;;;;;;;;2.00;2.00;;;;;13.15;63.59;100969.44;4940276;28;45432;-71
2023/01/07 05:04:02;;;;;;;;;2.00;2.00;;;;;13.18;63.41;100974.69;4939905;28;45441;-71
2023/01/07 05:06:27;;;;;;;;;3.00;3.00;;;;;13.09;63.73;100964.31;4939830;28;45897;-71
2023/01/07 05:08:52;;;;;;;;;3.00;2.50;;;;;13.09;64.04;100948.22;4956534;28;47016;-71
2023/01/07 05:11:21;;;;;;;;;3.00;3.00;;;;;12.92;63.86;100922.97;4940742;28;45632;-71
2023/01/07 05:13:48;;;;;;;;;2.00;2.00;;;;;12.92;63.91;100930.13;4941165;28;45366;-71
2023/01/07 05:16:13;;;;;;;;;2.75;2.75;;;;;13.05;63.96;100938.56;4939708;28;45342;-71
2023/01/07 05:18:39;;;;;;;;;4.00;4.00;;;;;13.04;64.08;100937.69;4941329;28;45476;-70
2023/01/07 05:21:04;;;;;;;;;2.00;2.00;;;;;12.89;64.29;100914.19;4940186;28;46903;-71
2023/01/07 05:23:30;;;;;;;;;5.75;4.00;;;;;12.94;64.45;100945.22;4940344;28;45519;-71
2023/01/07 05:25:55;;;;;;;;;1.25;1.25;;;;;12.93;64.41;100930.09;4940745;28;45552;-71
2023/01/07 05:28:20;;;;;;;;;3.25;3.25;;;;;12.92;64.63;100940.84;4940674;28;45396;-71
2023/01/07 05:30:46;;;;;;;;;2.75;2.00;;;;;12.73;64.56;100914.78;4940849;28;45511;-70
2023/01/07 05:33:12;;;;;;;;;3.00;3.00;;;;;12.83;64.70;100930.47;4959377;28;45436;-71
2023/01/07 05:35:37;;;;;;;;;4.00;3.00;;;;;12.67;64.90;100901.63;4940903;28;45556;-71
2023/01/07 05:38:02;;;;;;;;;3.00;3.00;;;;;12.61;65.09;100885.78;4940551;28;46505;-70
2023/01/07 05:40:28;;;;;;;;;2.25;2.25;;;;;12.64;65.19;100891.03;4940557;28;45629;-71
2023/01/07 05:42:53;;;;;;;;;3.00;3.00;;;;;12.60;65.15;100892.09;4939454;28;45865;-71
2023/01/07 05:45:20;;;;;;;;;2.25;2.00;;;;;12.75;65.14;100914.72;4940781;28;45434;-71
2023/01/07 05:47:46;;;;;;;;;2.50;2.50;;;;;12.55;65.19;100886.91;4940804;28;46988;-71
2023/01/07 05:50:12;;;;;;;;;3.50;3.50;;;;;12.68;65.50;100913.19;4955377;28;45399;-70
2023/01/07 05:52:37;;;;;;;;;3.25;3.00;;;;;12.67;65.28;100906.97;4939723;28;45769;-71
2023/01/07 05:55:04;;;;;;;;;3.50;3.50;;;;;12.52;65.32;100886.16;4934695;28;45300;-71
2023/01/07 05:57:29;;;;;;;;;4.00;4.00;;;;;12.49;65.42;100886.25;4931758;28;45701;-70
2023/01/07 05:59:54;;;;;;;;;4.00;3.00;;;;;12.45;65.39;100885.50;4949235;28;45244;-71
2023/01/07 06:02:20;;;;;;;;;4.00;4.00;;;;;12.51;65.63;100896.00;4941900;28;45271;-70
2023/01/07 06:04:45;;;;;;;;;4.25;3.00;;;;;12.47;65.54;100897.03;4966706;28;45392;-70
2023/01/07 06:07:10;;;;;;;;;4.00;4.00;;;;;12.42;65.44;100891.84;4955099;28;48244;-70
2023/01/07 06:09:36;;;;;;;;;3.00;3.00;;;;;12.57;65.54;100914.47;4941266;28;45416;-70
2023/01/07 06:12:01;;;;;;;;;4.00;4.00;;;;;12.46;65.30;100895.25;4940384;28;45480;-71
2023/01/07 06:14:26;;;;;;;;;4.00;4.00;;;;;12.56;65.51;100919.88;4940228;28;45271;-70
2023/01/07 06:16:51;;;;;;;;;5.00;5.00;;;;;12.37;65.62;100876.88;4940245;28;45269;-70
2023/01/07 06:19:17;;;;;;;;;5.00;5.00;;;;;12.49;65.77;100899.66;4941963;28;45326;-70
2023/01/07 06:21:42;;;;;;;;;4.25;3.00;;;;;12.49;65.62;100910.34;4941107;28;45503;-70
2023/01/07 06:24:09;;;;;;;;;4.00;4.00;;;;;12.39;65.60;100894.63;4943411;28;45409;-70
2023/01/07 06:26:34;;;;;;;;;4.00;3.00;;;;;12.31;65.77;100882.47;4943191;28;46619;-71
2023/01/07 06:28:59;;;;;;;;;4.25;3.25;;;;;12.45;65.66;100906.06;4943581;28;45375;-71
2023/01/07 06:31:25;;;;;;;;;4.00;4.00;;;;;12.38;65.37;100892.03;4949522;28;45416;-71
2023/01/07 06:33:50;;;;;;;;;4.50;4.00;;;;;12.42;65.41;100910.56;4943829;28;45393;-70
2023/01/07 06:36:15;;;;;;;;;4.00;3.00;;;;;12.42;65.41;100907.03;4943345;28;46451;-70
2023/01/07 06:38:41;;;;;;;;;4.75;3.75;;;;;12.37;65.31;100909.00;4958118;28;45957;-70
2023/01/07 06:41:07;;;;;;;;;3.25;2.75;;;;;12.14;65.35;100875.06;4943297;28;45496;-70
2023/01/07 06:43:33;;;;;;;;;7.00;4.00;;;;;12.15;65.40;100893.75;4943266;28;45358;-70
2023/01/07 06:45:58;;;;;;;;;5.25;2.50;;;;;12.04;65.76;100879.88;4943043;28;45254;-70
2023/01/07 06:48:23;;;;;;;;;3.25;3.25;;;;;12.13;65.50;100902.75;4943210;28;45354;-70
2023/01/07 06:50:49;;;;;;;;;5.50;4.00;;;;;12.11;65.59;100904.59;4942535;28;45556;-70
2023/01/07 06:53:14;;;;;;;;;3.50;3.50;;;;;12.02;65.65;100885.28;4943084;28;45324;-70
2023/01/07 06:55:40;;;;;;;;;4.75;4.00;;;;;12.01;65.37;100872.84;4932122;28;45267;-70
2023/01/07 06:58:05;;;;;;;;;3.25;3.25;;;;;11.88;65.69;100858.13;4940726;28;45464;-70
2023/01/07 07:00:30;;;;;;;;;5.00;5.00;;;;;11.83;65.62;100860.97;4949044;28;45621;-70
2023/01/07 07:02:56;;;;;;;;;3.75;3.75;;;;;12.00;65.96;100888.94;4943731;28;45390;-70
2023/01/07 07:05:21;;;;;;;;;3.00;2.75;;;;;11.91;65.88;100857.13;4942835;28;46247;-74
2023/01/07 07:07:47;;;;;;;;;5.50;5.50;;;;;11.96;65.95;100864.13;4941536;28;45334;-70
2023/01/07 07:10:12;;;;;;;;;4.25;3.25;;;;;11.85;65.73;100842.19;4939575;28;45393;-71
2023/01/07 07:12:40;;;;;;;;;4.50;4.50;;;;;12.02;65.72;100873.72;4957466;28;45526;-70
2023/01/07 07:15:12;;;;;;;;;3.00;3.00;;;;;11.99;65.88;100872.00;4941313;28;47341;-70
2023/01/07 07:17:40;;;;;;;;;4.75;4.00;;;;;11.76;65.61;100837.16;4942495;28;45409;-70
2023/01/07 07:20:07;;;;;;;;;4.25;4.25;;;;;11.95;65.64;100872.19;4949377;28;45535;-70
2023/01/07 07:22:34;;;;;;;;;3.75;3.75;;;;;11.61;65.86;100814.50;4942462;28;45481;-70
2023/01/07 07:25:00;;;;;;;;;5.00;5.00;;;;;11.64;65.88;100831.34;4942297;28;45389;-70
2023/01/07 07:27:25;;;;;;;;;4.25;4.00;;;;;11.85;66.24;100851.06;4942206;28;45255;-71
2023/01/07 07:29:51;;;;;;;;;3.75;3.75;;;;;11.70;65.77;100826.69;4942758;28;45303;-70
2023/01/07 07:32:19;;;;;;;;;3.75;3.75;;;;;11.71;65.86;100825.75;4942223;28;45511;-70
2023/01/07 07:34:54;;;;;;;;;5.00;5.00;;;;;11.89;65.72;100850.97;4942126;28;45717;-70
2023/01/07 07:37:19;;;;;;;;;2.50;2.50;;;;;11.93;65.39;100868.69;4939502;28;45401;-70
2023/01/07 07:39:44;;;;;;;;;4.00;4.00;;;;;11.87;65.37;100856.38;4941510;28;45448;-71
2023/01/07 07:42:10;;;;;;;;;5.75;4.00;;;;;11.71;65.21;100829.31;4942311;28;45632;-70
2023/01/07 07:44:35;;;;;;;;;5.00;4.00;;;;;11.67;65.71;100820.50;4941006;28;46651;-71
2023/01/07 07:47:01;;;;;;;;;4.00;3.75;;;;;11.68;65.66;100821.41;4942192;28;45437;-70
2023/01/07 07:49:26;;;;;;;;;3.00;3.00;;;;;11.77;65.52;100844.25;4957039;28;45587;-71
2023/01/07 07:51:51;;;;;;;;;4.75;3.00;;;;;11.63;65.64;100818.03;4940647;28;45803;-71
2023/01/07 07:54:17;;;;;;;;;4.00;4.00;;;;;11.49;65.75;100810.47;4940768;28;46382;-70
2023/01/07 07:56:42;;;;;;;;;3.75;3.75;;;;;11.62;65.50;100841.19;4940627;28;45361;-70
2023/01/07 07:59:07;;;;;;;;;5.50;4.50;;;;;11.65;65.87;100842.91;4942637;28;45386;-71
2023/01/07 08:01:33;;;;;;;;;3.75;3.25;;;;;11.53;65.84;100825.50;4938290;28;45619;-71
2023/01/07 08:03:58;;;;;;;;;2.25;2.25;;;;;11.42;65.91;100801.78;4955366;28;48324;-72
2023/01/07 08:06:23;;;;;;;;;3.25;2.50;;;;;11.44;65.62;100810.66;4948363;28;45320;-71
2023/01/07 08:08:49;;;;;;;;;4.00;4.00;;;;;11.66;65.42;100833.94;4941237;28;45638;-71
2023/01/07 08:11:14;;;;;;;;;4.25;4.25;;;;;11.46;65.93;100805.22;4942988;28;45335;-71
2023/01/07 08:13:40;;;;;;;;;4.25;4.25;;;;;11.54;65.63;100804.97;4941281;28;46050;-71
2023/01/07 08:16:05;;;;;;;;;3.00;3.00;;;;;11.44;65.77;100791.94;4956889;28;45888;-71
2023/01/07 08:18:31;;;;;;;;;5.00;5.00;;;;;11.55;65.70;100815.63;4941659;28;45307;-71
2023/01/07 08:20:56;;;;;;;;;3.00;3.00;;;;;11.63;65.53;100828.72;4940565;28;45513;-71
2023/01/07 08:23:22;;;;;;;;;3.00;3.00;;;;;11.53;65.68;100817.47;4941489;28;45591;-71
2023/01/07 08:25:47;;;;;;;;;4.00;4.00;;;;;11.48;65.52;100817.63;4961984;28;45425;-71
2023/01/07 08:28:13;;;;;;;;;4.25;3.25;;;;;11.61;65.78;100836.78;4940093;28;45605;-71
2023/01/07 08:30:38;;;;;;;;;4.00;3.50;;;;;11.48;65.62;100820.31;4938794;28;45444;-71
2023/01/07 08:33:06;;;;;;;;;5.00;5.00;;;;;11.47;65.55;100820.34;4948189;28;45750;-71
2023/01/07 08:35:31;;;;;;;;;3.00;3.00;;;;;11.55;65.83;100822.78;4941712;28;45763;-71
2023/01/07 08:38:04;;;;;;;;;4.75;3.00;;;;;11.46;65.59;100803.44;4939376;28;45498;-68
2023/01/07 08:40:30;;;;;;;;;3.00;3.00;;;;;11.50;65.64;100794.38;4938920;28;45463;-69
2023/01/07 08:43:00;;;;;;;;;4.00;3.75;;;;;11.52;65.53;100791.66;4955507;28;46105;-68
2023/01/07 08:45:26;;;;;;;;;6.00;5.00;;;;;11.61;65.77;100799.38;4940640;28;45647;-70
2023/01/07 08:47:52;;;;;;;;;4.00;4.00;;;;;11.59;65.22;100794.97;4940791;28;45262;-70
2023/01/07 08:50:19;;;;;;;;;3.00;3.00;;;;;11.55;65.64;100786.22;4941217;28;45341;-70
2023/01/07 08:52:46;;;;;;;;;5.00;4.25;;;;;11.38;65.77;100753.88;4949114;28;45476;-70
2023/01/07 08:55:11;;;;;;;;;6.00;5.75;;;;;11.47;65.59;100781.13;4953543;28;45641;-70
2023/01/07 08:57:36;;;;;;;;;3.00;3.00;;;;;11.30;65.68;100738.09;4941341;28;47369;-70
2023/01/07 09:00:02;;;;;;;;;4.00;3.00;;;;;11.30;65.37;100740.78;4943450;28;45566;-69
2023/01/07 09:02:27;;;;;;;;;3.00;3.00;;;;;11.26;65.62;100728.44;4964486;28;48338;-70
2023/01/07 09:04:53;;;;;;;;;3.00;2.00;;;;;11.43;65.93;100755.44;4943044;28;45296;-70
2023/01/07 09:07:18;;;;;;;;;5.00;5.00;;;;;11.21;65.80;100719.69;4939954;28;45789;-70
2023/01/07 09:09:44;;;;;;;;;2.00;2.00;;;;;11.25;66.32;100724.03;4941606;28;45270;-70
2023/01/07 09:12:09;;;;;;;;;5.00;5.00;;;;;11.35;66.18;100732.59;4938996;28;45479;-70
2023/01/07 09:14:34;;;;;;;;;4.75;3.75;;;;;11.30;66.32;100727.41;4946370;28;45326;-70
2023/01/07 09:17:00;;;;;;;;;3.50;2.75;;;;;11.49;66.14;100739.19;4941109;28;45358;-70
2023/01/07 09:19:25;;;;;;;;;6.75;4.25;;;;;11.48;66.18;100732.09;4939503;28;45593;-70
2023/01/07 09:21:50;;;;;;;;;5.00;5.00;;;;;11.54;66.48;100738.13;4945344;28;48303;-70
2023/01/07 09:24:17;;;;;;;;;7.75;5.00;;;;;11.40;66.02;100706.56;4935420;28;47004;-71
2023/01/07 09:26:42;;;;;;;;;4.25;3.00;;;;;11.33;66.11;100684.53;4940013;28;45674;-67
2023/01/07 09:29:08;;;;;;;;;5.25;4.25;;;;;11.48;66.00;100713.38;4958414;28;45592;-67
2023/01/07 09:31:34;;;;;;;;;6.50;3.75;;;;;11.52;65.96;100705.25;4939324;28;46056;-67
2023/01/07 09:34:00;;;;;;;;;5.00;5.00;;;;;11.52;66.07;100705.25;4939638;28;45532;-67
2023/01/07 09:36:25;;;;;;;;;5.25;5.00;;;;;11.43;65.86;100672.59;4954613;28;45627;-67
2023/01/07 09:38:51;;;;;;;;;5.00;5.00;;;;;11.50;66.10;100675.91;4951170;28;45590;-70
2023/01/07 09:41:35;;;;;;;;;9.50;5.25;;;;;11.61;66.13;100687.06;4939070;28;46248;-68
2023/01/07 09:44:28;;;;;;;;;8.75;5.00;;;;;11.65;65.68;100690.50;4939679;28;45401;-68
2023/01/07 09:46:55;;;;;;;;;4.00;4.00;;;;;11.63;65.82;100687.88;4939015;28;45518;-68
2023/01/07 09:49:28;;;;;;;;;4.75;3.75;;;;;11.62;66.09;100682.59;4939344;28;45422;-69
2023/01/07 09:52:06;;;;;;;;;5.25;5.25;;;;;11.61;65.91;100680.84;4939369;28;45981;-68
2023/01/07 09:54:35;;;;;;;;;4.00;4.00;;;;;11.60;65.78;100676.44;4953184;28;45389;-68
2023/01/07 09:57:01;;;;;;;;;9.00;5.25;;;;;11.58;65.87;100665.78;4942171;28;45506;-67
2023/01/07 09:59:27;;;;;;;;;9.25;6.00;;;;;11.55;65.76;100675.72;4952213;28;45266;-68
2023/01/07 10:01:56;;;;;;;;;4.25;4.25;;;;;11.56;65.91;100677.47;4942581;28;46478;-68
2023/01/07 10:04:31;;;;;;;;;5.00;4.25;;;;;11.58;65.98;100672.94;4957596;28;45666;-67
2023/01/07 10:07:34;;;;;;;;;5.00;5.00;;;;;11.62;66.03;100669.22;4943418;28;45462;-67
2023/01/07 10:10:07;;;;;;;;;5.00;5.00;;;;;11.64;66.01;100673.59;4943506;28;45641;-67
2023/01/07 10:12:40;;;;;;;;;4.00;3.50;;;;;11.70;65.75;100676.97;4942387;28;45769;-68
2023/01/07 10:15:46;;;;;;;;;6.00;5.25;;;;;11.72;65.82;100686.66;4943124;28;45589;-67
2023/01/07 10:18:32;;;;;;;;;4.00;4.00;;;;;11.75;66.06;100689.22;4943566;28;45490;-67
2023/01/07 10:21:11;;;;;;;;;3.50;3.50;;;;;11.77;65.74;100671.31;4946986;28;45591;-68
2023/01/07 10:23:44;;;;;;;;;3.25;3.25;;;;;11.81;65.78;100664.91;4930730;28;45779;-70
2023/01/07 10:26:30;;;;;;;;;6.00;4.00;;;;;11.80;65.27;100665.84;4941175;28;45493;-71
2023/01/07 10:29:20;;;;;;;;;5.00;4.25;;;;;11.82;65.29;100663.09;4942665;28;45493;-70
2023/01/07 10:31:47;;;;;;;;;3.00;3.00;;;;;11.80;65.19;100643.59;4938584;28;45342;-70
2023/01/07 10:34:17;;;;;;;;;4.25;4.25;;;;;11.81;65.14;100637.28;4943015;28;46155;-69
2023/01/07 10:36:59;;;;;;;;;4.00;2.75;;;;;11.77;65.08;100624.97;4945187;28;45576;-69
2023/01/07 10:40:01;;;;;;;;;4.00;4.00;;;;;11.79;65.31;100634.66;4942898;28;45394;-69
2023/01/07 10:42:51;;;;;;;;;6.00;5.50;;;;;11.84;65.05;100635.38;4943505;28;45926;-70
2023/01/07 10:45:20;;;;;;;;;4.50;3.75;;;;;11.84;64.94;100626.47;4947834;28;47187;-70
2023/01/07 10:47:51;;;;;;;;;4.00;4.00;;;;;11.84;64.98;100623.78;4942696;28;45270;-70
2023/01/07 10:50:37;;;;;;;;;4.75;4.50;;;;;11.84;65.16;100626.47;4944463;28;45481;-69
2023/01/07 10:53:11;;;;;;;;;4.25;4.25;;;;;11.81;65.00;100608.75;4942575;28;45421;-70
2023/01/07 10:56:10;;;;;;;;;6.50;4.75;;;;;11.80;64.93;100598.13;4941055;28;47250;-70
2023/01/07 10:58:41;;;;;;;;;3.50;3.50;;;;;11.81;65.46;100587.38;4944926;28;45706;-70
2023/01/07 11:01:17;;;;;;;;;5.00;4.00;;;;;11.90;64.87;100606.66;4941394;28;45637;-69
2023/01/07 11:03:42;;;;;;;;;7.25;4.00;;;;;11.87;65.17;100599.59;4942772;28;45414;-70
2023/01/07 11:06:13;;;;;;;;;5.25;4.50;;;;;11.95;65.13;100602.03;4958625;28;47024;-70
2023/01/07 11:08:40;;;;;;;;;5.50;5.50;;;;;11.99;64.75;100595.59;4942503;28;45595;-70
2023/01/07 11:11:14;;;;;;;;;4.75;4.75;;;;;11.97;64.62;100568.03;4958513;28;45548;-69
2023/01/07 11:13:41;;;;;;;;;3.50;2.25;;;;;12.04;64.61;100574.88;4938154;28;45433;-70
2023/01/07 11:16:22;;;;;;;;;4.75;4.00;;;;;12.05;64.64;100563.25;4955973;28;47356;-70
2023/01/07 11:19:04;;;;;;;;;5.25;4.75;;;;;11.99;64.50;100550.97;4942611;28;45430;-70
2023/01/07 11:21:42;;;;;;;;;5.00;3.00;;;;;12.10;64.54;100549.69;4938797;28;45681;-67
2023/01/07 11:24:29;;;;;;;;;4.25;4.25;;;;;12.12;64.62;100550.50;4940268;28;45305;-67
2023/01/07 11:27:09;;;;;;;;;2.00;1.00;;;;;12.09;64.65;100538.09;4940923;28;46913;-69
2023/01/07 11:29:40;;;;;;;;;3.75;3.25;;;;;12.17;64.67;100538.66;4942392;28;45391;-69
2023/01/07 11:32:17;;;;;;;;;4.50;3.75;;;;;12.16;64.82;100526.22;4942676;28;45419;-69
2023/01/07 11:35:07;;;;;;;;;1.75;1.75;;;;;12.24;64.29;100533.91;4955009;28;45465;-69
2023/01/07 11:37:44;;;;;;;;;5.25;4.00;;;;;12.19;64.18;100519.84;4933712;28;45449;-68